Clarkston, MI (48346)

8:12 AM EDT on May 23, 2017 (GMT -0400)
Rural St | | Change Station

Elev 1038 ft 42.70 °N, 83.40 °W | Updated 17 seconds ago

Overcast
Overcast
57.7 °F
Feels Like 57.7 °F
N
0.0
Wind Variable Wind from SE
Gusts 1.0 mph

Today
High -- | Low -- °F
--% Chance of Precip.
Yesterday
High -- | Low -- °F
Precip. -- in
Pressure 29.86 in
Visibility 10.0 miles
Clouds Mostly Cloudy 8000 ft
Mostly Cloudy 9500 ft
Overcast 15000 ft
Dew Point 51 °F
Humidity 78%
Rainfall 0.00 in
Snow Depth Not available.
6:03 AM 8:57 PM
Waning Crescent, 8% visible
METAR KPTK 231153Z 00000KT 10SM BKN080 BKN095 OVC150 14/11 A2987 RMK AO2 RAE16 SLP112 P0000 60000 T01390106 10161 20133 58000
Pressure 29.86 in
Visibility 10.0 miles
Clouds Mostly Cloudy 8000 ft
Mostly Cloudy 9500 ft
Overcast 15000 ft
Dew Point 51 °F
Humidity 78%
Rainfall 0.00 in
Snow Depth Not available.
6:03 AM 8:57 PM
Waning Crescent, 8% visible
METAR KPTK 231153Z 00000KT 10SM BKN080 BKN095 OVC150 14/11 A2987 RMK AO2 RAE16 SLP112 P0000 60000 T01390106 10161 20133 58000

Get Severe Weather Alerts

Thanks for signing up!

Be on the lookout for a verification email in your inbox.

You'll start receiving the daily forecast at 6 AM.

×

10-Day Weather Forecast

Almanac

Astronomy

May. 23, 2017 Rise Set
Actual Time
Civil Twilight
Nautical Twilight
Astronomical Twilight
Moon
Length of Visible Light
Length of Day
Tomorrow will be .
, % of the Moon is Illuminated

Today's Extremes

State Highs State Lows

Community

WunderPhotos

Category 6

Welcome to Category 6. This is the collective home for Weather Underground's featured writeups by Dr. Jeff Masters (right), Bob Henson (left), Chris Burt, and other regular contributors.

Nearby

Air Quality

  Air Quality AQ Index Pollutant
Not available.

Snow Depth

Station Depth Elevation

Earthquake Activity

City Distance Mag. Time & Date
Minimum magnitude displayed is 2.5.

Coastal Water Temperatures

Place Temperature

Stations

Nearby Weather Stations

Station Location Temp. Windchill Dew Point Humidity Wind Precip. Elev Updated Type
                   

Watches & Warnings

There are currently no watches in effect.